createdAt,value
2022-09-21T00:01:36.432Z,10.95
2022-09-21T00:04:05.023Z,11.05
2022-09-21T00:06:35.084Z,11.00
2022-09-21T00:09:05.061Z,10.90
2022-09-21T00:11:35.948Z,10.85
2022-09-21T00:14:08.931Z,10.98
2022-09-21T00:16:41.682Z,10.95
2022-09-21T00:19:10.260Z,10.93
2022-09-21T00:21:38.273Z,10.87
2022-09-21T00:24:10.134Z,10.90
2022-09-21T00:26:39.579Z,10.87
2022-09-21T00:29:09.981Z,10.88
2022-09-21T00:31:37.781Z,10.94
2022-09-21T00:34:07.991Z,10.97
2022-09-21T00:36:35.943Z,10.83
2022-09-21T00:39:04.259Z,10.93
2022-09-21T00:41:36.084Z,10.87
2022-09-21T00:44:29.982Z,10.85
2022-09-21T00:47:03.854Z,10.77
2022-09-21T00:49:33.948Z,10.73
2022-09-21T00:52:06.699Z,10.84
2022-09-21T00:54:43.809Z,10.78
2022-09-21T00:57:11.445Z,10.71
2022-09-21T00:59:40.043Z,10.75
2022-09-21T01:02:09.827Z,10.88
2022-09-21T01:04:42.853Z,10.86
2022-09-21T01:07:18.405Z,10.78
2022-09-21T01:09:50.850Z,10.79
2022-09-21T01:12:45.024Z,10.55
2022-09-21T01:15:29.927Z,10.52
2022-09-21T01:18:12.270Z,10.58
2022-09-21T01:21:11.466Z,10.64
2022-09-21T01:23:52.459Z,10.55
2022-09-21T01:26:37.617Z,10.56
2022-09-21T01:29:23.904Z,10.52
2022-09-21T01:32:21.012Z,10.47
2022-09-21T01:35:11.255Z,10.47
2022-09-21T01:38:15.101Z,10.20
2022-09-21T01:40:47.144Z,10.28
2022-09-21T01:43:32.225Z,10.30
2022-09-21T01:46:04.275Z,10.23
2022-09-21T01:48:39.486Z,10.24
2022-09-21T01:51:10.899Z,10.30
2022-09-21T01:53:45.317Z,10.44
2022-09-21T01:56:30.875Z,10.31
2022-09-21T01:59:18.420Z,10.22
2022-09-21T02:01:55.363Z,10.32
2022-09-21T02:04:22.579Z,10.35
2022-09-21T02:06:51.217Z,10.39
2022-09-21T02:09:21.164Z,10.33
2022-09-21T02:11:48.377Z,10.36
2022-09-21T02:14:24.766Z,10.41
2022-09-21T02:17:03.569Z,10.35
2022-09-21T02:19:50.612Z,10.37
2022-09-21T02:22:46.320Z,10.27
2022-09-21T02:25:48.194Z,10.17
2022-09-21T02:28:27.443Z,10.15
2022-09-21T02:31:10.181Z,10.17
2022-09-21T02:33:57.639Z,10.08
2022-09-21T02:36:47.746Z,9.98
2022-09-21T02:39:44.970Z,9.90
2022-09-21T02:42:22.088Z,9.73
2022-09-21T02:45:10.323Z,9.76
2022-09-21T02:47:50.719Z,9.92
2022-09-21T02:50:45.014Z,9.92
2022-09-21T02:53:17.490Z,9.71
2022-09-21T02:55:46.869Z,9.74
2022-09-21T02:58:21.191Z,9.73
2022-09-21T03:00:50.798Z,9.79
2022-09-21T03:03:22.123Z,9.85
2022-09-21T03:05:52.743Z,9.76
2022-09-21T03:08:21.334Z,9.72
2022-09-21T03:10:50.920Z,9.57
2022-09-21T03:13:20.812Z,9.49
2022-09-21T03:15:48.033Z,9.58
2022-09-21T03:18:17.579Z,9.61
2022-09-21T03:20:48.624Z,9.57
2022-09-21T03:23:15.858Z,9.58
2022-09-21T03:25:46.346Z,9.44
2022-09-21T03:28:16.693Z,9.33
2022-09-21T03:30:45.775Z,9.31
2022-09-21T03:33:13.118Z,9.08
2022-09-21T03:35:43.243Z,9.04
2022-09-21T03:38:10.270Z,9.31
2022-09-21T03:40:39.965Z,9.47
2022-09-21T03:43:09.540Z,9.36
2022-09-21T03:45:38.157Z,9.33
2022-09-21T03:48:05.357Z,9.47
2022-09-21T03:50:35.278Z,9.44
2022-09-21T03:53:02.334Z,9.28
2022-09-21T03:55:29.964Z,9.37
2022-09-21T03:57:56.998Z,9.32
2022-09-21T04:00:24.014Z,9.44
2022-09-21T04:02:57.111Z,9.54
2022-09-21T04:05:27.800Z,9.47
2022-09-21T04:08:02.607Z,9.20
2022-09-21T04:10:33.357Z,9.23
2022-09-21T04:13:04.370Z,9.10
2022-09-21T04:15:33.731Z,9.23
2022-09-21T04:18:00.762Z,9.25
2022-09-21T04:20:30.409Z,9.21
2022-09-21T04:22:58.218Z,9.06
2022-09-21T04:25:26.866Z,9.03
2022-09-21T04:27:54.516Z,9.16
2022-09-21T04:30:33.229Z,9.26
2022-09-21T04:33:04.324Z,9.29
2022-09-21T04:35:34.025Z,9.26
2022-09-21T04:38:03.556Z,9.42
2022-09-21T04:40:33.135Z,9.46
2022-09-21T04:43:02.820Z,9.47
2022-09-21T04:45:32.638Z,9.37
2022-09-21T04:48:00.597Z,9.29
2022-09-21T04:50:28.253Z,9.29
2022-09-21T04:53:01.375Z,9.33
2022-09-21T04:55:31.728Z,9.28
2022-09-21T04:57:58.754Z,9.04
2022-09-21T05:00:29.630Z,8.90
2022-09-21T05:02:57.104Z,8.89
2022-09-21T05:05:34.604Z,8.89
2022-09-21T05:08:02.258Z,8.93
2022-09-21T05:10:30.608Z,9.04
2022-09-21T05:12:59.876Z,9.08
2022-09-21T05:15:29.900Z,9.10
2022-09-21T05:17:57.990Z,9.03
2022-09-21T05:20:25.362Z,8.98
2022-09-21T05:22:52.958Z,9.07
2022-09-21T05:25:20.597Z,9.06
2022-09-21T05:28:03.009Z,8.99
2022-09-21T05:30:30.734Z,9.07
2022-09-21T05:33:03.976Z,9.23
2022-09-21T05:36:37.867Z,9.32
2022-09-21T05:39:08.882Z,9.84
2022-09-21T05:41:36.708Z,10.16
2022-09-21T05:44:12.020Z,10.54
2022-09-21T05:46:44.192Z,10.82
2022-09-21T05:49:47.855Z,11.28
2022-09-21T05:52:39.697Z,11.80
2022-09-21T05:56:00.903Z,12.53
2022-09-21T05:59:20.298Z,12.85
2022-09-21T06:03:01.460Z,13.52
2022-09-21T06:05:36.688Z,13.89
2022-09-21T06:08:06.837Z,14.21
2022-09-21T06:10:35.648Z,14.60
2022-09-21T06:13:05.228Z,14.57
2022-09-21T06:15:41.252Z,14.88
2022-09-21T06:18:12.155Z,15.15
2022-09-21T06:20:41.547Z,15.42
2022-09-21T06:23:11.702Z,15.73
2022-09-21T06:25:41.312Z,15.57
2022-09-21T06:28:16.578Z,16.12
2022-09-21T06:30:49.561Z,16.64
2022-09-21T06:33:20.794Z,16.85
2022-09-21T06:36:01.832Z,17.68
2022-09-21T06:38:31.992Z,17.94
2022-09-21T06:41:06.796Z,18.18
2022-09-21T06:43:37.934Z,18.28
2022-09-21T06:46:05.971Z,18.23
2022-09-21T06:48:35.968Z,18.51
2022-09-21T06:51:10.805Z,20.09
2022-09-21T06:53:39.588Z,20.29
2022-09-21T06:56:12.787Z,21.33
2022-09-21T06:58:45.225Z,22.27
2022-09-21T07:01:19.273Z,23.31
2022-09-21T07:03:55.825Z,23.76
2022-09-21T07:06:32.055Z,24.25
2022-09-21T07:11:47.487Z,23.97
2022-09-21T07:14:19.920Z,24.19
2022-09-21T07:16:51.647Z,24.79
2022-09-21T07:19:21.195Z,25.27
2022-09-21T07:21:58.053Z,25.53
2022-09-21T07:24:25.290Z,26.07
2022-09-21T07:26:55.369Z,26.87
2022-09-21T07:29:25.643Z,26.21
2022-09-21T07:31:55.485Z,27.21
2022-09-21T07:34:22.778Z,27.89
2022-09-21T07:36:51.860Z,28.29
2022-09-21T07:39:19.166Z,28.10
2022-09-21T07:41:50.861Z,29.43
2022-09-21T07:44:22.698Z,29.53
2022-09-21T07:46:50.345Z,29.87
2022-09-21T07:49:23.059Z,29.77
2022-09-21T07:51:50.279Z,30.83
2022-09-21T07:54:17.433Z,30.72
2022-09-21T07:57:04.627Z,30.88
2022-09-21T07:59:33.039Z,30.98
2022-09-21T08:02:09.991Z,31.11
2022-09-21T08:04:57.031Z,31.32
2022-09-21T08:07:24.252Z,32.02
2022-09-21T08:09:51.497Z,33.27
2022-09-21T08:12:21.234Z,33.18
2022-09-21T08:14:49.687Z,33.59
2022-09-21T08:17:19.701Z,33.47
2022-09-21T08:19:47.980Z,34.44
2022-09-21T08:22:15.164Z,34.94
2022-09-21T08:24:46.295Z,35.21
2022-09-21T08:27:21.589Z,35.05
2022-09-21T08:29:51.973Z,34.54
2022-09-21T08:32:49.927Z,33.45
2022-09-21T08:35:19.251Z,33.56
2022-09-21T08:37:53.659Z,33.21
2022-09-21T08:40:24.165Z,35.30
2022-09-21T08:43:02.457Z,35.61
2022-09-21T08:45:47.998Z,35.50
2022-09-21T08:48:28.459Z,35.74
2022-09-21T08:51:02.914Z,35.57
2022-09-21T08:53:48.498Z,36.40
2022-09-21T08:56:22.664Z,36.48
2022-09-21T08:58:52.646Z,36.33
2022-09-21T09:01:39.718Z,36.63
2022-09-21T09:04:57.237Z,36.64
2022-09-21T09:08:09.209Z,36.45
2022-09-21T09:11:08.563Z,37.24
2022-09-21T09:14:21.886Z,37.40
2022-09-21T09:17:39.310Z,38.04
2022-09-21T09:20:40.280Z,37.53
2022-09-21T09:23:21.773Z,38.21
2022-09-21T09:25:55.027Z,37.67
2022-09-21T09:28:34.033Z,37.74
2022-09-21T09:31:31.814Z,38.21
2022-09-21T09:34:30.834Z,38.51
2022-09-21T09:37:16.383Z,39.43
2022-09-21T09:39:55.330Z,37.48
2022-09-21T09:42:46.257Z,38.23
2022-09-21T09:45:48.319Z,38.85
2022-09-21T09:48:54.428Z,40.24
2022-09-21T09:51:27.348Z,39.97
2022-09-21T09:54:06.877Z,40.10
2022-09-21T09:56:42.341Z,39.65
2022-09-21T09:59:30.947Z,38.92
2022-09-21T10:02:26.021Z,38.73
2022-09-21T10:05:09.180Z,39.28
2022-09-21T10:07:45.178Z,38.81
2022-09-21T10:10:39.340Z,37.45
2022-09-21T10:13:25.098Z,39.08
2022-09-21T10:15:55.170Z,38.99
2022-09-21T10:19:03.066Z,35.29
2022-09-21T10:21:48.800Z,32.82
2022-09-21T10:24:38.827Z,31.09
2022-09-21T10:27:14.167Z,32.15
2022-09-21T10:29:50.082Z,35.43
2022-09-21T10:32:23.152Z,36.38
2022-09-21T10:35:15.300Z,38.05
2022-09-21T10:37:54.037Z,38.61
2022-09-21T10:40:21.408Z,39.65
2022-09-21T10:42:58.692Z,40.32
2022-09-21T10:45:30.933Z,40.95
2022-09-21T10:48:19.176Z,41.00
2022-09-21T10:50:51.930Z,40.46
2022-09-21T10:53:32.001Z,40.95
2022-09-21T10:56:18.755Z,40.29
2022-09-21T10:59:24.481Z,40.34
2022-09-21T11:02:02.948Z,40.96
2022-09-21T11:04:48.461Z,41.67
2022-09-21T11:07:19.740Z,42.10
2022-09-21T11:09:59.008Z,42.91
2022-09-21T11:12:43.198Z,42.73
2022-09-21T11:15:34.036Z,43.66
2022-09-21T11:18:21.787Z,42.66
2022-09-21T11:20:59.673Z,41.80
2022-09-21T11:23:44.936Z,42.00
2022-09-21T11:26:33.154Z,41.09
2022-09-21T11:29:17.745Z,40.37
2022-09-21T11:32:23.122Z,41.35
2022-09-21T11:35:27.937Z,42.42
2022-09-21T11:38:33.706Z,42.71
2022-09-21T11:41:27.825Z,40.57
2022-09-21T11:44:17.390Z,39.63
2022-09-21T11:47:26.516Z,40.89
2022-09-21T11:50:30.902Z,41.41
2022-09-21T11:54:17.888Z,41.40
2022-09-21T11:56:54.475Z,40.30
2022-09-21T11:59:57.757Z,41.13
2022-09-21T12:02:31.596Z,41.19
2022-09-21T12:05:25.851Z,41.50
2022-09-21T12:07:58.888Z,41.62
2022-09-21T12:11:06.462Z,41.22
2022-09-21T12:13:45.478Z,40.24
2022-09-21T12:16:26.351Z,40.42
2022-09-21T12:19:12.145Z,40.53
2022-09-21T12:21:50.017Z,41.28
2022-09-21T12:24:45.430Z,41.23
2022-09-21T12:28:05.543Z,41.18
2022-09-21T12:30:34.586Z,41.46
2022-09-21T12:33:35.719Z,41.17
2022-09-21T12:36:17.128Z,40.31
2022-09-21T12:39:16.286Z,40.80
2022-09-21T12:42:02.116Z,40.77
2022-09-21T12:44:57.406Z,40.77
2022-09-21T12:47:30.046Z,39.82
2022-09-21T12:50:34.189Z,40.04
2022-09-21T12:53:04.696Z,40.35
2022-09-21T12:56:16.519Z,39.68
2022-09-21T12:59:23.050Z,39.61
2022-09-21T13:01:57.132Z,40.30
2022-09-21T13:04:45.770Z,39.89
2022-09-21T13:07:34.712Z,39.72
2022-09-21T13:10:31.709Z,40.39
2022-09-21T13:13:03.580Z,39.56
2022-09-21T13:15:47.708Z,39.73
2022-09-21T13:18:35.106Z,40.02
2022-09-21T13:21:20.419Z,40.38
2022-09-21T13:24:01.577Z,40.06
2022-09-21T13:26:43.493Z,39.94
2022-09-21T13:29:19.973Z,39.93
2022-09-21T13:32:01.076Z,38.75
2022-09-21T13:34:35.690Z,38.80
2022-09-21T13:37:11.683Z,38.99
2022-09-21T13:39:55.732Z,39.80
2022-09-21T13:42:47.602Z,39.03
2022-09-21T13:45:20.761Z,38.40
2022-09-21T13:47:59.036Z,37.94
2022-09-21T13:50:39.927Z,38.10
2022-09-21T13:53:21.340Z,37.88
2022-09-21T13:56:01.569Z,37.68
2022-09-21T13:58:36.771Z,38.25
2022-09-21T14:01:46.379Z,38.04
2022-09-21T14:04:36.791Z,37.89
2022-09-21T14:07:08.733Z,36.94
2022-09-21T14:09:51.681Z,37.12
2022-09-21T14:12:25.761Z,37.37
2022-09-21T14:15:20.193Z,36.54
2022-09-21T14:18:11.852Z,35.82
2022-09-21T14:20:39.766Z,36.62
2022-09-21T14:23:19.879Z,36.48
2022-09-21T14:25:54.162Z,35.94
2022-09-21T14:28:33.923Z,36.33
2022-09-21T14:31:08.514Z,36.14
2022-09-21T14:33:59.482Z,36.46
2022-09-21T14:36:50.364Z,36.14
2022-09-21T14:39:32.070Z,35.06
2022-09-21T14:42:15.814Z,34.81
2022-09-21T14:44:43.462Z,34.98
2022-09-21T14:47:28.838Z,35.23
2022-09-21T14:50:27.105Z,35.21
2022-09-21T14:53:52.272Z,35.11
2022-09-21T14:57:08.687Z,34.95
2022-09-21T15:00:14.943Z,34.19
2022-09-21T15:02:49.700Z,33.91
2022-09-21T15:05:35.209Z,34.12
2022-09-21T15:08:33.085Z,34.16
2022-09-21T15:11:07.469Z,33.96
2022-09-21T15:13:58.544Z,33.13
2022-09-21T15:16:38.827Z,32.81
2022-09-21T15:19:27.967Z,32.82
2022-09-21T15:22:17.616Z,32.10
2022-09-21T15:25:06.036Z,32.34
2022-09-21T15:27:38.166Z,32.03
2022-09-21T15:30:20.541Z,31.51
2022-09-21T15:33:04.865Z,31.06
2022-09-21T15:35:35.748Z,30.69
2022-09-21T15:38:02.806Z,30.67
2022-09-21T15:40:46.306Z,30.46
2022-09-21T15:43:17.076Z,30.15
2022-09-21T15:46:02.102Z,30.03
2022-09-21T15:48:42.293Z,29.02
2022-09-21T15:51:32.393Z,28.36
2022-09-21T15:54:20.003Z,27.91
2022-09-21T15:56:47.509Z,27.66
2022-09-21T15:59:21.043Z,27.13
2022-09-21T16:01:53.120Z,26.59
2022-09-21T16:04:23.580Z,26.48
2022-09-21T16:07:05.761Z,25.95
2022-09-21T16:09:45.103Z,25.57
2022-09-21T16:12:52.079Z,25.33
2022-09-21T16:15:32.008Z,24.73
2022-09-21T16:18:07.009Z,24.41
2022-09-21T16:20:50.778Z,24.07
2022-09-21T16:23:23.330Z,23.51
2022-09-21T16:26:01.240Z,23.22
2022-09-21T16:28:35.731Z,23.05
2022-09-21T16:31:35.489Z,22.98
2022-09-21T16:34:18.620Z,22.53
2022-09-21T16:36:51.729Z,22.49
2022-09-21T16:39:28.479Z,22.36
2022-09-21T16:42:01.920Z,22.28
2022-09-21T16:44:34.702Z,21.97
2022-09-21T16:47:03.679Z,21.89
2022-09-21T16:49:36.754Z,21.94
2022-09-21T16:52:04.147Z,21.82
2022-09-21T16:54:35.245Z,21.43
2022-09-21T16:57:06.176Z,21.34
2022-09-21T16:59:34.818Z,21.41
2022-09-21T17:02:05.154Z,20.82
2022-09-21T17:04:36.312Z,20.94
2022-09-21T17:07:06.976Z,20.71
2022-09-21T17:09:38.565Z,20.95
2022-09-21T17:12:08.866Z,20.59
2022-09-21T17:14:41.809Z,20.55
2022-09-21T17:17:23.154Z,20.79
2022-09-21T17:19:54.363Z,20.76
2022-09-21T17:22:22.132Z,20.54
2022-09-21T17:24:55.052Z,20.50
2022-09-21T17:27:29.191Z,20.40
2022-09-21T17:30:03.611Z,20.23
2022-09-21T17:32:38.464Z,20.03
2022-09-21T17:35:39.909Z,19.80
2022-09-21T17:38:11.275Z,19.85
2022-09-21T17:40:42.884Z,19.33
2022-09-21T17:44:00.363Z,19.11
2022-09-21T17:46:44.690Z,19.49
2022-09-21T17:49:12.201Z,18.91
2022-09-21T17:52:00.875Z,19.10
2022-09-21T17:54:27.981Z,18.75
2022-09-21T17:57:11.878Z,18.66
2022-09-21T17:59:42.609Z,18.61
2022-09-21T18:02:28.071Z,18.70
2022-09-21T18:05:04.229Z,18.43
2022-09-21T18:07:33.873Z,18.40
2022-09-21T18:10:01.159Z,18.26
2022-09-21T18:12:40.299Z,18.30
2022-09-21T18:15:46.456Z,18.11
2022-09-21T18:19:07.439Z,17.94
2022-09-21T18:21:45.676Z,17.68
2022-09-21T18:24:31.141Z,17.71
2022-09-21T18:26:59.732Z,17.63
2022-09-21T18:29:40.769Z,17.35
2022-09-21T18:32:40.048Z,17.32
2022-09-21T18:35:24.388Z,17.30
2022-09-21T18:38:21.027Z,17.25
2022-09-21T18:40:53.590Z,17.13
2022-09-21T18:43:35.150Z,17.03
2022-09-21T18:46:20.896Z,16.88
2022-09-21T18:48:59.999Z,16.79
2022-09-21T18:51:29.858Z,16.58
2022-09-21T18:53:58.241Z,16.27
2022-09-21T18:56:37.410Z,16.74
2022-09-21T18:59:09.291Z,16.74
2022-09-21T19:01:39.632Z,16.65
2022-09-21T19:04:07.727Z,16.55
2022-09-21T19:07:04.953Z,16.56
2022-09-21T19:10:09.716Z,16.28
2022-09-21T19:13:27.141Z,15.96
2022-09-21T19:16:21.468Z,15.69
2022-09-21T19:18:52.445Z,15.69
2022-09-21T19:22:07.223Z,15.90
2022-09-21T19:25:03.690Z,15.70
2022-09-21T19:28:05.256Z,15.84
2022-09-21T19:30:32.705Z,15.86
2022-09-21T19:33:03.946Z,15.59
2022-09-21T19:35:35.997Z,15.31
2022-09-21T19:38:06.735Z,15.17
2022-09-21T19:40:40.362Z,15.13
2022-09-21T19:43:53.198Z,15.17
2022-09-21T19:46:46.642Z,15.15
2022-09-21T19:49:19.847Z,15.12
2022-09-21T19:51:49.205Z,15.15
2022-09-21T19:54:38.553Z,15.18
2022-09-21T19:57:43.167Z,15.11
2022-09-21T20:00:17.665Z,14.88
2022-09-21T20:03:31.260Z,14.98
2022-09-21T20:06:21.518Z,15.12
2022-09-21T20:09:26.388Z,14.90
2022-09-21T20:12:03.716Z,14.94
2022-09-21T20:15:05.366Z,14.77
2022-09-21T20:18:02.772Z,14.90
2022-09-21T20:20:30.132Z,14.76
2022-09-21T20:23:09.448Z,14.89
2022-09-21T20:25:52.752Z,14.81
2022-09-21T20:28:22.475Z,14.93
2022-09-21T20:30:54.499Z,14.92
2022-09-21T20:33:23.318Z,14.98
2022-09-21T20:35:55.736Z,14.92
2022-09-21T20:38:23.250Z,14.82
2022-09-21T20:40:51.447Z,14.89
2022-09-21T20:43:19.829Z,14.84
2022-09-21T20:45:49.537Z,14.82
2022-09-21T20:48:20.297Z,14.84
2022-09-21T20:50:49.516Z,14.81
2022-09-21T20:53:17.624Z,14.69
2022-09-21T20:55:56.826Z,14.47
2022-09-21T20:58:25.165Z,14.21
2022-09-21T21:00:56.447Z,13.95
2022-09-21T21:03:28.188Z,13.77
2022-09-21T21:06:11.638Z,14.07
2022-09-21T21:08:38.643Z,13.97
2022-09-21T21:11:06.222Z,14.00
2022-09-21T21:13:35.719Z,14.02
2022-09-21T21:16:08.176Z,14.08
2022-09-21T21:18:45.843Z,13.99
2022-09-21T21:21:12.986Z,13.95
2022-09-21T21:24:00.690Z,13.92
2022-09-21T21:26:50.246Z,13.84
2022-09-21T21:29:14.794Z,13.79
2022-09-21T21:31:41.934Z,13.78
2022-09-21T21:34:11.305Z,14.06
2022-09-21T21:36:42.977Z,14.03
2022-09-21T21:39:13.463Z,13.94
2022-09-21T21:41:41.453Z,13.92
2022-09-21T21:44:15.756Z,13.96
2022-09-21T21:46:43.447Z,13.82
2022-09-21T21:49:10.500Z,13.83
2022-09-21T21:51:39.950Z,13.71
2022-09-21T21:54:07.390Z,13.66
2022-09-21T21:56:34.951Z,13.60
2022-09-21T21:59:02.054Z,13.47
2022-09-21T22:01:32.019Z,13.40
2022-09-21T22:04:01.786Z,13.13
2022-09-21T22:06:34.362Z,13.04
2022-09-21T22:09:03.045Z,13.26
2022-09-21T22:11:31.107Z,13.30
2022-09-21T22:14:01.222Z,13.36
2022-09-21T22:16:33.872Z,13.32
2022-09-21T22:19:04.282Z,13.47
2022-09-21T22:21:35.051Z,13.43
2022-09-21T22:24:04.992Z,13.23
2022-09-21T22:26:42.456Z,13.30
2022-09-21T22:33:18.971Z,13.16
2022-09-21T22:35:45.916Z,12.98
2022-09-21T22:38:13.653Z,13.01
2022-09-21T22:40:44.016Z,12.79
2022-09-21T22:43:11.346Z,12.71
2022-09-21T22:45:40.596Z,12.68
2022-09-21T22:48:09.261Z,12.73
2022-09-21T22:50:39.100Z,12.68
2022-09-21T22:53:05.957Z,12.45
2022-09-21T22:55:35.739Z,12.53
2022-09-21T22:58:03.440Z,12.59
2022-09-21T23:00:30.868Z,12.61
2022-09-21T23:02:58.390Z,12.68
2022-09-21T23:05:27.793Z,12.59
2022-09-21T23:07:56.595Z,12.59
2022-09-21T23:10:26.480Z,12.68
2022-09-21T23:12:54.247Z,12.56
2022-09-21T23:15:22.500Z,12.38
2022-09-21T23:17:51.626Z,12.37
2022-09-21T23:20:20.955Z,12.28
2022-09-21T23:22:53.278Z,12.35
2022-09-21T23:25:20.616Z,12.22
2022-09-21T23:27:47.764Z,12.21
2022-09-21T23:30:19.386Z,12.14
2022-09-21T23:32:47.020Z,12.12
2022-09-21T23:35:14.126Z,12.04
2022-09-21T23:37:41.087Z,11.91
2022-09-21T23:40:09.334Z,11.95
2022-09-21T23:42:36.531Z,11.95
2022-09-21T23:45:06.127Z,12.06
2022-09-21T23:47:33.169Z,11.96
2022-09-21T23:50:00.145Z,11.94
2022-09-21T23:52:30.322Z,11.90
2022-09-21T23:55:01.869Z,11.75
2022-09-21T23:57:28.850Z,11.49
2022-09-21T23:59:55.879Z,11.44
